createdAt,value
2022-08-14T00:01:10.352Z,20.98
2022-08-14T00:03:40.593Z,20.95
2022-08-14T00:06:14.069Z,20.95
2022-08-14T00:08:55.504Z,20.95
2022-08-14T00:11:27.049Z,20.95
2022-08-14T00:13:58.952Z,20.96
2022-08-14T00:16:41.090Z,20.96
2022-08-14T00:19:19.197Z,20.97
2022-08-14T00:21:50.364Z,20.95
2022-08-14T00:24:28.402Z,20.95
2022-08-14T00:27:02.275Z,20.96
2022-08-14T00:29:39.930Z,20.96
2022-08-14T00:32:52.981Z,20.95
2022-08-14T00:35:01.200Z,20.94
2022-08-14T00:37:28.913Z,20.93
2022-08-14T00:39:59.570Z,20.91
2022-08-14T00:42:55.370Z,20.89
2022-08-14T00:45:16.253Z,20.90
2022-08-14T00:47:46.521Z,20.89
2022-08-14T00:50:17.658Z,20.89
2022-08-14T00:52:46.306Z,20.89
2022-08-14T00:55:19.814Z,20.89
2022-08-14T00:58:07.646Z,20.88
2022-08-14T01:00:37.531Z,20.85
2022-08-14T01:03:16.552Z,20.82
2022-08-14T01:05:51.947Z,20.83
2022-08-14T01:08:57.950Z,20.82
2022-08-14T01:11:08.013Z,20.83
2022-08-14T01:13:43.213Z,20.81
2022-08-14T01:16:14.899Z,20.81
2022-08-14T01:19:02.435Z,20.80
2022-08-14T01:21:34.772Z,20.80
2022-08-14T01:24:07.407Z,20.81
2022-08-14T01:26:38.991Z,20.80
2022-08-14T01:29:07.143Z,20.79
2022-08-14T01:31:45.033Z,20.77
2022-08-14T01:35:17.701Z,20.77
2022-08-14T01:37:07.373Z,20.76
2022-08-14T01:39:36.209Z,20.72
2022-08-14T01:42:06.336Z,20.71
2022-08-14T01:44:38.801Z,20.66
2022-08-14T01:47:21.676Z,20.65
2022-08-14T01:49:59.653Z,20.63
2022-08-14T01:52:59.054Z,20.60
2022-08-14T01:55:22.097Z,20.58
2022-08-14T01:58:01.435Z,20.56
2022-08-14T02:00:39.278Z,20.55
2022-08-14T02:03:07.650Z,20.53
2022-08-14T02:05:38.188Z,20.52
2022-08-14T02:08:08.883Z,20.50
2022-08-14T02:10:38.508Z,20.50
2022-08-14T02:13:11.246Z,20.49
2022-08-14T02:15:40.754Z,20.48
2022-08-14T02:18:11.853Z,20.46
2022-08-14T02:20:42.791Z,20.46
2022-08-14T02:23:11.762Z,20.46
2022-08-14T02:25:39.664Z,20.45
2022-08-14T02:28:25.367Z,20.42
2022-08-14T02:30:54.966Z,20.47
2022-08-14T02:33:23.235Z,20.50
2022-08-14T02:35:53.434Z,20.49
2022-08-14T02:38:30.172Z,20.47
2022-08-14T02:41:01.961Z,20.46
2022-08-14T02:43:36.510Z,20.48
2022-08-14T02:46:05.380Z,20.48
2022-08-14T02:49:04.770Z,20.45
2022-08-14T02:51:23.968Z,20.41
2022-08-14T02:54:01.683Z,20.37
2022-08-14T02:57:14.336Z,20.39
2022-08-14T02:59:17.554Z,20.39
2022-08-14T03:01:50.554Z,20.36
2022-08-14T03:04:22.413Z,20.34
2022-08-14T03:07:06.506Z,20.38
2022-08-14T03:10:25.105Z,20.36
2022-08-14T03:12:30.782Z,20.35
2022-08-14T03:15:00.577Z,20.35
2022-08-14T03:17:31.794Z,20.37
2022-08-14T03:20:11.208Z,20.38
2022-08-14T03:22:41.909Z,20.34
2022-08-14T03:25:12.077Z,20.32
2022-08-14T03:27:48.423Z,20.31
2022-08-14T03:30:39.084Z,20.30
2022-08-14T03:33:08.064Z,20.30
2022-08-14T03:35:40.385Z,20.35
2022-08-14T03:39:11.618Z,20.33
2022-08-14T03:41:16.396Z,20.28
2022-08-14T03:43:44.446Z,20.29
2022-08-14T03:46:52.738Z,20.29
2022-08-14T03:49:04.191Z,20.27
2022-08-14T03:51:31.958Z,20.26
2022-08-14T03:54:00.540Z,20.27
2022-08-14T03:56:31.868Z,20.25
2022-08-14T03:59:02.998Z,20.25
2022-08-14T04:01:41.577Z,20.21
2022-08-14T04:04:14.446Z,20.20
2022-08-14T04:06:47.852Z,20.19
2022-08-14T04:09:16.899Z,20.19
2022-08-14T04:11:46.237Z,20.20
2022-08-14T04:14:16.490Z,20.21
2022-08-14T04:16:48.056Z,20.19
2022-08-14T04:19:20.490Z,20.19
2022-08-14T04:22:02.503Z,20.18
2022-08-14T04:24:38.596Z,20.16
2022-08-14T04:27:09.924Z,20.14
2022-08-14T04:29:39.230Z,20.11
2022-08-14T04:33:00.208Z,20.11
2022-08-14T04:34:55.942Z,20.10
2022-08-14T04:37:41.417Z,20.09
2022-08-14T04:40:27.813Z,20.11
2022-08-14T04:43:17.075Z,20.10
2022-08-14T04:45:45.174Z,20.09
2022-08-14T04:48:13.024Z,20.09
2022-08-14T04:50:44.626Z,20.10
2022-08-14T04:53:13.788Z,20.09
2022-08-14T04:55:42.872Z,20.11
2022-08-14T04:58:21.676Z,20.07
2022-08-14T05:00:55.037Z,20.05
2022-08-14T05:03:26.781Z,20.05
2022-08-14T05:05:56.673Z,20.03
2022-08-14T05:08:32.087Z,20.04
2022-08-14T05:11:13.520Z,20.00
2022-08-14T05:16:32.306Z,20.02
2022-08-14T05:19:18.059Z,20.04
2022-08-14T05:21:59.971Z,20.04
2022-08-14T05:24:35.233Z,20.05
2022-08-14T05:27:05.360Z,20.08
2022-08-14T05:29:35.182Z,20.07
2022-08-14T05:32:07.251Z,20.07
2022-08-14T05:34:34.862Z,20.09
2022-08-14T05:37:03.525Z,20.09
2022-08-14T05:39:34.467Z,20.09
2022-08-14T05:42:10.059Z,20.11
2022-08-14T05:44:51.244Z,20.09
2022-08-14T05:47:22.997Z,20.10
2022-08-14T05:49:51.637Z,20.11
2022-08-14T05:52:38.535Z,20.12
2022-08-14T05:55:07.182Z,20.14
2022-08-14T05:57:34.816Z,20.18
2022-08-14T06:00:06.433Z,20.19
2022-08-14T06:02:36.678Z,20.19
2022-08-14T06:05:04.708Z,20.21
2022-08-14T06:07:32.284Z,20.22
2022-08-14T06:10:04.163Z,20.24
2022-08-14T06:12:56.392Z,20.25
2022-08-14T06:15:20.932Z,20.25
2022-08-14T06:17:58.636Z,20.26
2022-08-14T06:20:26.689Z,20.25
2022-08-14T06:22:56.270Z,20.28
2022-08-14T06:25:25.045Z,20.28
2022-08-14T06:27:53.736Z,20.28
2022-08-14T06:30:30.497Z,20.33
2022-08-14T06:33:11.982Z,20.34
2022-08-14T06:35:43.288Z,20.35
2022-08-14T06:38:17.859Z,20.38
2022-08-14T06:40:46.083Z,20.41
2022-08-14T06:43:15.239Z,20.43
2022-08-14T06:45:50.396Z,20.46
2022-08-14T06:48:23.667Z,20.47
2022-08-14T06:50:52.003Z,20.50
2022-08-14T06:53:19.834Z,20.52
2022-08-14T06:55:58.332Z,20.53
2022-08-14T06:58:31.616Z,20.55
2022-08-14T07:01:27.031Z,20.57
2022-08-14T07:04:22.845Z,20.60
2022-08-14T07:06:51.044Z,20.62
2022-08-14T07:09:22.443Z,20.65
2022-08-14T07:11:50.828Z,20.67
2022-08-14T07:14:18.795Z,20.69
2022-08-14T07:16:47.740Z,20.72
2022-08-14T07:19:18.060Z,20.74
2022-08-14T07:21:49.144Z,20.76
2022-08-14T07:24:22.173Z,20.79
2022-08-14T07:26:54.237Z,20.80
2022-08-14T07:29:26.020Z,20.81
2022-08-14T07:31:55.409Z,20.82
2022-08-14T07:34:36.503Z,20.84
2022-08-14T07:37:08.664Z,20.85
2022-08-14T07:39:38.577Z,20.86
2022-08-14T07:42:07.983Z,20.87
2022-08-14T07:44:48.974Z,20.88
2022-08-14T07:47:19.679Z,20.88
2022-08-14T07:49:55.314Z,20.89
2022-08-14T07:52:30.812Z,20.91
2022-08-14T07:54:59.522Z,20.91
2022-08-14T07:57:28.352Z,20.92
2022-08-14T07:59:56.074Z,20.93
2022-08-14T08:02:27.527Z,20.95
2022-08-14T08:04:59.310Z,20.97
2022-08-14T08:07:29.857Z,20.98
2022-08-14T08:09:59.533Z,21.00
2022-08-14T08:12:30.921Z,21.00
2022-08-14T08:15:05.860Z,21.02
2022-08-14T08:17:42.711Z,21.03
2022-08-14T08:20:22.755Z,21.04
2022-08-14T08:22:55.774Z,21.05
2022-08-14T08:25:24.285Z,21.05
2022-08-14T08:27:59.270Z,21.05
2022-08-14T08:30:27.105Z,21.05
2022-08-14T08:32:59.190Z,21.06
2022-08-14T08:35:46.567Z,21.06
2022-08-14T08:39:18.740Z,21.07
2022-08-14T08:41:04.944Z,21.08
2022-08-14T08:43:38.195Z,21.07
2022-08-14T08:46:08.993Z,21.08
2022-08-14T08:48:52.321Z,21.08
2022-08-14T08:51:33.383Z,21.09
2022-08-14T08:54:02.902Z,21.08
2022-08-14T08:56:41.279Z,21.08
2022-08-14T08:59:27.377Z,21.10
2022-08-14T09:02:00.556Z,21.10
2022-08-14T09:04:30.424Z,21.09
2022-08-14T09:07:09.200Z,21.09
2022-08-14T09:09:54.164Z,21.08
2022-08-14T09:12:26.798Z,21.09
2022-08-14T09:14:55.647Z,21.08
2022-08-14T09:17:25.893Z,21.08
2022-08-14T09:19:55.773Z,21.09
2022-08-14T09:22:35.824Z,21.09
2022-08-14T09:25:07.267Z,21.09
2022-08-14T09:27:35.695Z,21.12
2022-08-14T09:30:30.761Z,21.10
2022-08-14T09:33:00.104Z,21.13
2022-08-14T09:35:33.744Z,21.13
2022-08-14T09:38:07.082Z,21.12
2022-08-14T09:40:50.825Z,21.14
2022-08-14T09:43:22.848Z,21.16
2022-08-14T09:45:52.838Z,21.17
2022-08-14T09:48:27.554Z,21.21
2022-08-14T09:50:57.682Z,21.27
2022-08-14T09:54:19.430Z,21.31
2022-08-14T09:56:30.303Z,21.38
2022-08-14T09:58:59.705Z,21.49
2022-08-14T10:01:37.412Z,21.55
2022-08-14T10:04:12.358Z,21.62
2022-08-14T10:06:56.445Z,21.68
2022-08-14T10:09:24.093Z,21.75
2022-08-14T10:11:58.961Z,21.77
2022-08-14T10:14:35.757Z,21.78
2022-08-14T10:17:05.194Z,21.80
2022-08-14T10:19:35.759Z,21.82
2022-08-14T10:23:12.951Z,21.82
2022-08-14T10:24:55.068Z,21.89
2022-08-14T10:27:24.326Z,22.00
2022-08-14T10:29:53.280Z,22.05
2022-08-14T10:32:28.406Z,22.02
2022-08-14T10:35:13.631Z,21.96
2022-08-14T10:37:48.066Z,21.94
2022-08-14T10:40:37.406Z,21.94
2022-08-14T10:43:17.875Z,21.99
2022-08-14T10:46:03.599Z,22.07
2022-08-14T10:48:45.820Z,22.07
2022-08-14T10:51:16.690Z,22.07
2022-08-14T10:53:56.945Z,22.09
2022-08-14T10:56:32.227Z,22.08
2022-08-14T10:59:03.639Z,22.05
2022-08-14T11:01:32.562Z,22.07
2022-08-14T11:04:08.585Z,22.09
2022-08-14T11:06:37.275Z,22.07
2022-08-14T11:09:16.917Z,22.06
2022-08-14T11:11:44.823Z,22.06
2022-08-14T11:14:12.571Z,22.10
2022-08-14T11:16:41.677Z,22.13
2022-08-14T11:19:21.196Z,22.18
2022-08-14T11:21:55.517Z,22.23
2022-08-14T11:24:54.384Z,22.25
2022-08-14T11:27:16.935Z,22.24
2022-08-14T11:29:48.097Z,22.19
2022-08-14T11:32:20.685Z,22.18
2022-08-14T11:34:48.485Z,22.16
2022-08-14T11:37:22.886Z,22.13
2022-08-14T11:40:03.065Z,22.12
2022-08-14T11:42:56.702Z,22.10
2022-08-14T11:45:23.195Z,22.12
2022-08-14T11:48:12.705Z,22.12
2022-08-14T11:50:40.105Z,22.11
2022-08-14T11:53:08.784Z,22.09
2022-08-14T11:55:39.552Z,22.07
2022-08-14T11:58:10.628Z,22.05
2022-08-14T12:00:47.470Z,22.01
2022-08-14T12:03:17.798Z,22.01
2022-08-14T12:05:47.745Z,21.99
2022-08-14T12:08:15.781Z,21.98
2022-08-14T12:10:53.364Z,21.99
2022-08-14T12:13:22.365Z,21.97
2022-08-14T12:15:59.217Z,21.95
2022-08-14T12:18:32.341Z,21.93
2022-08-14T12:21:00.509Z,21.91
2022-08-14T12:23:28.170Z,21.92
2022-08-14T12:26:31.686Z,21.93
2022-08-14T12:29:07.941Z,21.92
2022-08-14T12:31:36.288Z,21.90
2022-08-14T12:34:13.502Z,21.89
2022-08-14T12:36:41.317Z,21.88
2022-08-14T12:39:18.822Z,21.87
2022-08-14T12:41:57.273Z,21.85
2022-08-14T12:44:30.440Z,21.87
2022-08-14T12:47:03.708Z,21.87
2022-08-14T12:49:34.737Z,21.88
2022-08-14T12:52:03.274Z,21.85
2022-08-14T12:54:32.083Z,21.86
2022-08-14T12:57:09.153Z,21.84
2022-08-14T12:59:42.660Z,21.83
2022-08-14T13:02:25.392Z,21.84
2022-08-14T13:04:55.494Z,21.82
2022-08-14T13:07:24.083Z,21.84
2022-08-14T13:09:55.580Z,21.84
2022-08-14T13:12:33.268Z,21.84
2022-08-14T13:15:09.081Z,21.87
2022-08-14T13:17:41.235Z,21.88
2022-08-14T13:20:24.079Z,21.88
2022-08-14T13:22:54.885Z,21.88
2022-08-14T13:25:25.578Z,21.88
2022-08-14T13:27:57.643Z,21.88
2022-08-14T13:30:26.231Z,21.88
2022-08-14T13:32:54.446Z,21.88
2022-08-14T13:35:25.929Z,21.87
2022-08-14T13:37:54.057Z,21.86
2022-08-14T13:40:26.468Z,21.85
2022-08-14T13:42:56.799Z,21.85
2022-08-14T13:45:33.679Z,21.85
2022-08-14T13:48:27.397Z,21.87
2022-08-14T13:51:01.688Z,21.88
2022-08-14T13:53:33.313Z,21.88
2022-08-14T13:56:01.296Z,21.88
2022-08-14T13:58:34.495Z,21.89
2022-08-14T14:01:04.444Z,21.90
2022-08-14T14:03:34.934Z,21.89
2022-08-14T14:06:03.225Z,21.89
2022-08-14T14:08:43.106Z,21.90
2022-08-14T14:11:15.791Z,21.90
2022-08-14T14:13:46.437Z,21.91
2022-08-14T14:16:15.339Z,21.91
2022-08-14T14:18:52.204Z,21.91
2022-08-14T14:21:21.742Z,21.91
2022-08-14T14:23:49.990Z,21.89
2022-08-14T14:26:23.185Z,21.90
2022-08-14T14:28:54.755Z,21.89
2022-08-14T14:31:30.109Z,21.89
2022-08-14T14:33:59.717Z,21.89
2022-08-14T14:36:29.383Z,21.90
2022-08-14T14:38:58.177Z,21.90
2022-08-14T14:41:38.187Z,21.90
2022-08-14T14:44:15.793Z,21.90
2022-08-14T14:46:50.526Z,21.90
2022-08-14T14:49:22.040Z,21.89
2022-08-14T14:51:53.677Z,21.88
2022-08-14T14:54:30.937Z,21.88
2022-08-14T14:57:00.337Z,21.87
2022-08-14T14:59:33.586Z,21.85
2022-08-14T15:02:07.740Z,21.85
2022-08-14T15:04:37.904Z,21.84
2022-08-14T15:07:06.162Z,21.85
2022-08-14T15:09:34.387Z,21.85
2022-08-14T15:12:15.987Z,21.84
2022-08-14T15:14:55.246Z,21.84
2022-08-14T15:17:25.192Z,21.83
2022-08-14T15:19:57.301Z,21.84
2022-08-14T15:22:25.445Z,21.83
2022-08-14T15:24:53.246Z,21.84
2022-08-14T15:27:26.199Z,21.86
2022-08-14T15:29:56.014Z,21.89
2022-08-14T15:32:23.676Z,21.91
2022-08-14T15:34:52.951Z,21.92
2022-08-14T15:37:22.110Z,21.94
2022-08-14T15:39:52.760Z,21.95
2022-08-14T15:42:22.489Z,21.95
2022-08-14T15:44:56.914Z,21.95
2022-08-14T15:47:29.618Z,21.96
2022-08-14T15:49:59.449Z,21.94
2022-08-14T15:52:32.608Z,21.95
2022-08-14T15:55:13.169Z,21.95
2022-08-14T15:57:51.728Z,21.94
2022-08-14T16:00:49.455Z,21.94
2022-08-14T16:03:27.794Z,21.94
2022-08-14T16:06:03.376Z,21.94
2022-08-14T16:08:31.208Z,21.94
2022-08-14T16:10:59.791Z,21.93
2022-08-14T16:13:42.099Z,21.95
2022-08-14T16:16:50.547Z,21.98
2022-08-14T16:19:00.990Z,22.06
2022-08-14T16:21:29.571Z,22.13
2022-08-14T16:24:00.485Z,22.19
2022-08-14T16:26:29.819Z,22.27
2022-08-14T16:29:07.365Z,22.35
2022-08-14T16:31:36.592Z,22.43
2022-08-14T16:34:43.716Z,22.49
2022-08-14T16:36:54.207Z,22.55
2022-08-14T16:39:22.575Z,22.61
2022-08-14T16:41:52.159Z,22.66
2022-08-14T16:44:21.878Z,22.72
2022-08-14T16:46:59.830Z,22.78
2022-08-14T16:50:04.041Z,22.83
2022-08-14T16:52:26.277Z,22.89
2022-08-14T16:55:07.024Z,22.92
2022-08-14T16:57:34.998Z,22.95
2022-08-14T17:00:07.167Z,22.97
2022-08-14T17:02:48.406Z,23.02
2022-08-14T17:05:19.804Z,23.04
2022-08-14T17:08:31.878Z,23.07
2022-08-14T17:11:00.858Z,23.08
2022-08-14T17:13:59.215Z,23.11
2022-08-14T17:16:24.658Z,23.15
2022-08-14T17:19:00.816Z,23.17
2022-08-14T17:21:32.239Z,23.18
2022-08-14T17:24:01.032Z,23.18
2022-08-14T17:26:50.783Z,23.19
2022-08-14T17:29:24.225Z,23.20
2022-08-14T17:32:02.148Z,23.21
2022-08-14T17:34:45.242Z,23.21
2022-08-14T17:37:25.995Z,23.22
2022-08-14T17:40:13.824Z,23.22
2022-08-14T17:42:55.663Z,23.23
2022-08-14T17:45:43.201Z,23.25
2022-08-14T17:49:15.673Z,23.23
2022-08-14T17:51:14.226Z,23.25
2022-08-14T17:53:53.310Z,23.25
2022-08-14T17:56:31.779Z,23.26
2022-08-14T17:59:17.798Z,23.24
2022-08-14T18:01:46.489Z,23.25
2022-08-14T18:04:24.971Z,23.28
2022-08-14T18:06:57.874Z,23.29
2022-08-14T18:09:40.353Z,23.30
2022-08-14T18:12:32.902Z,23.30
2022-08-14T18:15:14.575Z,23.30
2022-08-14T18:17:44.912Z,23.30
2022-08-14T18:21:41.927Z,23.33
2022-08-14T18:23:14.576Z,23.33
2022-08-14T18:25:49.271Z,23.34
2022-08-14T18:28:48.269Z,23.35
2022-08-14T18:31:43.763Z,23.35
2022-08-14T18:34:31.563Z,23.36
2022-08-14T18:37:16.753Z,23.35
2022-08-14T18:40:01.548Z,23.37
2022-08-14T18:42:44.230Z,23.38
2022-08-14T18:45:16.128Z,23.39
2022-08-14T18:50:35.236Z,23.42
2022-08-14T18:53:07.231Z,23.42
2022-08-14T18:55:54.037Z,23.44
2022-08-14T18:58:30.932Z,23.46
2022-08-14T19:01:00.759Z,23.46
2022-08-14T19:03:57.352Z,23.47
2022-08-14T19:06:56.555Z,23.48
2022-08-14T19:09:53.742Z,23.49
2022-08-14T19:13:00.696Z,23.47
2022-08-14T19:15:31.375Z,23.39
2022-08-14T19:18:14.343Z,23.34
2022-08-14T19:20:52.833Z,23.26
2022-08-14T19:23:23.565Z,23.22
2022-08-14T19:26:33.681Z,23.16
2022-08-14T19:29:23.442Z,23.10
2022-08-14T19:31:55.200Z,23.04
2022-08-14T19:34:52.116Z,22.98
2022-08-14T19:37:45.900Z,22.95
2022-08-14T19:40:19.427Z,22.90
2022-08-14T19:42:48.929Z,22.86
2022-08-14T19:45:16.786Z,22.82
2022-08-14T19:47:49.776Z,22.80
2022-08-14T19:50:39.081Z,22.77
2022-08-14T19:53:16.591Z,22.73
2022-08-14T19:55:55.722Z,22.70
2022-08-14T19:58:54.942Z,22.65
2022-08-14T20:01:37.490Z,22.63
2022-08-14T20:04:45.193Z,22.61
2022-08-14T20:06:56.958Z,22.58
2022-08-14T20:11:07.841Z,22.56
2022-08-14T20:12:28.878Z,22.53
2022-08-14T20:15:08.822Z,22.51
2022-08-14T20:17:40.339Z,22.49
2022-08-14T20:20:25.312Z,22.47
2022-08-14T20:23:11.325Z,22.46
2022-08-14T20:25:45.189Z,22.44
2022-08-14T20:28:29.549Z,22.41
2022-08-14T20:31:13.237Z,22.40
2022-08-14T20:33:48.671Z,22.39
2022-08-14T20:36:25.858Z,22.37
2022-08-14T20:38:56.285Z,22.35
2022-08-14T20:41:24.013Z,22.34
2022-08-14T20:44:09.441Z,22.34
2022-08-14T20:46:42.173Z,22.32
2022-08-14T20:49:12.014Z,22.31
2022-08-14T20:51:47.492Z,22.29
2022-08-14T20:54:34.361Z,22.30
2022-08-14T20:57:07.341Z,22.29
2022-08-14T20:59:39.881Z,22.25
2022-08-14T21:02:29.743Z,22.25
2022-08-14T21:04:58.711Z,22.24
2022-08-14T21:07:36.097Z,22.23
2022-08-14T21:10:35.427Z,22.23
2022-08-14T21:14:19.073Z,22.21
2022-08-14T21:15:43.547Z,22.21
2022-08-14T21:18:26.189Z,22.20
2022-08-14T21:20:56.662Z,22.19
2022-08-14T21:23:24.322Z,22.18
2022-08-14T21:25:55.081Z,22.17
2022-08-14T21:28:29.857Z,22.17
2022-08-14T21:31:02.467Z,22.16
2022-08-14T21:33:31.546Z,22.15
2022-08-14T21:36:07.577Z,22.15
2022-08-14T21:38:38.463Z,22.13
2022-08-14T21:41:42.877Z,22.13
2022-08-14T21:44:18.260Z,22.12
2022-08-14T21:46:50.205Z,22.12
2022-08-14T21:49:22.094Z,22.12
2022-08-14T21:51:57.139Z,22.10
2022-08-14T21:54:32.583Z,22.10
2022-08-14T21:57:53.644Z,22.09
2022-08-14T22:00:34.630Z,22.10
2022-08-14T22:03:04.258Z,22.07
2022-08-14T22:05:34.884Z,22.06
2022-08-14T22:08:07.410Z,22.07
2022-08-14T22:10:44.709Z,22.06
2022-08-14T22:13:16.952Z,22.07
2022-08-14T22:15:49.625Z,22.06
2022-08-14T22:18:19.874Z,22.06
2022-08-14T22:20:53.914Z,22.06
2022-08-14T22:23:26.376Z,22.05
2022-08-14T22:25:55.071Z,22.05
2022-08-14T22:28:32.995Z,22.05
2022-08-14T22:31:09.915Z,22.04
2022-08-14T22:33:43.532Z,22.04
2022-08-14T22:36:26.574Z,22.04
2022-08-14T22:38:54.429Z,22.03
2022-08-14T22:41:27.610Z,22.03
2022-08-14T22:43:59.471Z,22.02
2022-08-14T22:46:29.470Z,22.02
2022-08-14T22:48:57.489Z,22.01
2022-08-14T22:51:28.496Z,22.01
2022-08-14T22:53:56.745Z,22.01
2022-08-14T22:56:29.453Z,22.01
2022-08-14T22:59:01.632Z,22.01
2022-08-14T23:01:57.086Z,22.02
2022-08-14T23:04:35.016Z,22.00
2022-08-14T23:07:22.618Z,22.01
2022-08-14T23:10:31.257Z,22.01
2022-08-14T23:12:54.254Z,21.99
2022-08-14T23:15:30.221Z,22.01
2022-08-14T23:18:00.280Z,21.99
2022-08-14T23:20:31.818Z,21.98
2022-08-14T23:23:04.181Z,21.97
2022-08-14T23:25:58.715Z,21.97
2022-08-14T23:28:32.975Z,21.96
2022-08-14T23:31:02.940Z,21.97
2022-08-14T23:33:45.799Z,21.97
2022-08-14T23:36:32.290Z,21.96
2022-08-14T23:39:12.310Z,21.96
2022-08-14T23:41:53.181Z,21.95
2022-08-14T23:44:24.686Z,21.95
2022-08-14T23:47:00.559Z,21.94
2022-08-14T23:50:00.655Z,21.96
2022-08-14T23:52:55.632Z,21.95
2022-08-14T23:55:27.006Z,21.93
2022-08-14T23:58:00.826Z,21.93
